Plano's Hourly Summary for Monday, April 17, 2017
Hour Temp
(f)
RH
(%)
Solar Rad.
(MJ/m2)
Rainfall
(in)
Wind
(mph)
4/17/2017 12:00 AM 70 76 0 0 0.02
4/17/2017 1:00 AM 69 77 0 0 0.09
4/17/2017 2:00 AM 70 77 0 0 0.51
4/17/2017 3:00 AM 71 76 0 0 2.41
4/17/2017 4:00 AM 71 76 0 0 2.65
4/17/2017 5:00 AM 70 76 0 0 2.32
4/17/2017 6:00 AM 69 79 0 0 1.77
4/17/2017 7:00 AM 69 81 0 0 2.13
4/17/2017 8:00 AM 68 82 0.07 0 1.96
4/17/2017 9:00 AM 68 83 0.25 0 2.64
4/17/2017 10:00 AM 69 81 0.31 0 2.39
4/17/2017 11:00 AM 69 81 0.27 0 2.76
4/17/2017 12:00 PM 69 83 0.48 0.01 3.2
4/17/2017 1:00 PM 66 83 0.39 0.03 5.71
4/17/2017 2:00 PM 65 87 0.69 0.05 3.73
4/17/2017 3:00 PM 63 84 0.13 0.03 4.15
4/17/2017 4:00 PM 62 86 0.15 0.07 1.74
4/17/2017 5:00 PM 62 87 0.11 0.16 0.77
4/17/2017 6:00 PM 62 92 0.11 0.04 0.34
4/17/2017 7:00 PM 63 75 0.07 0.01 3.78
4/17/2017 8:00 PM 63 76 0.04 0 0.38
4/17/2017 9:00 PM 62 81 0 0 1.06
4/17/2017 10:00 PM 63 84 0 0 1.91
4/17/2017 11:00 PM 62 88 0 0 2.72
Data Summary 66 81 3.07 0.40 2.13